Aeroporto :







RITROVATECI SU...

 
LOGIN :

Iscrizione | Disclaimer

   EN    FR    IT 

 









Sommario :    VFR   VFR Marginale   IFR   IFR Intensivo   IFR Molto Intensivo
Visibilità : 
Base nubi : 
>= 8 km
>= 3000ft
5 / 8 km
1000 / 3000 ft
1500m / 5 km
500 / 1000 ft
800 / 1500m
200 / 500 ft
< 800m
< 200 ft
Simboli :   Temporali  Nebbia  Neve Forte  Precipitazioni Forti  Vento > 20 kt






- Altitudine del aeroporto : 10 ft
- Codice IATA : ORG


SMZO - Zorg en Hoop

ULTIMO METAR :
  • 012000Z 05010KT 9000 FEW015 SCT030 29/23 Q1011 NOSIG

METARs OBSOLETI :
  • 011900Z 05012KT 9000 FEW020 SCT030 29/24 Q1012 NOSIG
  • 011800Z 08012KT 9000 -SHRA BKN025 29/24 Q1012 NOSIG

TAF TAF SMZO
Valido dal 01 a 18 ore il 02 a 18 ore UTC


011600Z 0118/0218 08008KT 9999 SCT015 TX30/0218Z TN24/0209Z
TEMPO 0118/0119 5000 SHRA FEW015TCU SCT025
FIR SMPM / Sudamerica



MetMap, La meteo Aeronautica in un colpo d'occhio ! - Copyright ORBIFLY Dicembre 2007 - Disclaimer

ORBIFLY MET'MAP TEAM :

Programmazione e sviluppo : Alexandra Zaïnal
Concezione : Baudouin d'Aumeries
Aiuto per la programmazione : Marc-Olivier Méhu
Supporto tecnico e logistico : Manuel Goepfert
Aiuto per la traduzione : Arnaldo La Scala

Contatto : metmap@orbifly.com




FONTI E CREDITI :

   NOAA